createdAt,value
2019-01-05T00:01:03.565Z,101578.14
2019-01-05T00:03:33.661Z,101579.83
2019-01-05T00:06:03.782Z,101577.42
2019-01-05T00:08:36.648Z,101579.42
2019-01-05T00:11:21.777Z,101582.97
2019-01-05T00:14:06.850Z,101590.42
2019-01-05T00:16:46.041Z,101590.22
2019-01-05T00:19:32.948Z,101580.55
2019-01-05T00:22:19.912Z,101578.26
2019-01-05T00:25:06.485Z,101570.73
2019-01-05T00:27:46.280Z,101558.81
2019-01-05T00:30:31.536Z,101548.83
2019-01-05T00:33:05.927Z,101541.09
2019-01-05T00:36:01.636Z,101536.94
2019-01-05T00:38:49.851Z,101545.36
2019-01-05T00:41:30.483Z,101536.94
2019-01-05T00:44:00.582Z,101535.37
2019-01-05T00:46:32.727Z,101541.33
2019-01-05T00:49:17.379Z,101542.72
2019-01-05T00:51:59.149Z,101531.93
2019-01-05T00:54:39.135Z,101536.80
2019-01-05T00:57:25.856Z,101522.22
2019-01-05T01:00:08.407Z,101512.48
2019-01-05T01:02:50.905Z,101509.62
2019-01-05T01:05:21.006Z,101490.60
2019-01-05T01:08:03.364Z,101491.31
2019-01-05T01:10:36.497Z,101486.93
2019-01-05T01:13:09.554Z,101484.87
2019-01-05T01:15:48.900Z,101479.71
2019-01-05T01:18:35.251Z,101476.75
2019-01-05T01:21:11.516Z,101467.83
2019-01-05T01:23:45.305Z,101466.13
2019-01-05T01:26:15.644Z,101458.00
2019-01-05T01:29:02.587Z,101454.43
2019-01-05T01:31:47.831Z,101452.16
2019-01-05T01:34:23.747Z,101445.42
2019-01-05T01:36:59.835Z,101442.25
2019-01-05T01:39:39.001Z,101440.95
2019-01-05T01:42:11.276Z,101435.19
2019-01-05T01:44:54.225Z,101430.95
2019-01-05T01:47:25.876Z,101437.88
2019-01-05T01:49:56.227Z,101429.84
2019-01-05T01:52:39.959Z,101424.20
2019-01-05T01:55:26.225Z,101423.59
2019-01-05T01:58:14.949Z,101426.09
2019-01-05T02:00:45.317Z,101424.09
2019-01-05T02:03:19.481Z,101421.81
2019-01-05T02:06:06.415Z,101412.28
2019-01-05T02:08:51.315Z,101407.70
2019-01-05T02:11:33.255Z,101397.61
2019-01-05T02:14:21.123Z,101400.38
2019-01-05T02:17:09.269Z,101393.45
2019-01-05T02:20:06.017Z,101391.77
2019-01-05T02:23:14.509Z,101378.45
2019-01-05T02:26:02.041Z,101372.31
2019-01-05T02:29:03.457Z,101363.20
2019-01-05T02:32:12.910Z,101363.53
2019-01-05T02:34:46.043Z,101349.42
2019-01-05T02:37:40.374Z,101351.30
2019-01-05T02:40:46.642Z,101344.55
2019-01-05T02:43:38.996Z,101340.86
2019-01-05T02:46:27.067Z,101332.77
2019-01-05T02:49:19.708Z,101340.20
2019-01-05T02:52:27.303Z,101338.61
2019-01-05T02:55:16.644Z,101321.22
2019-01-05T02:57:52.715Z,101313.48
2019-01-05T03:00:25.838Z,101308.83
2019-01-05T03:03:14.894Z,101310.42
2019-01-05T03:06:00.238Z,101297.51
2019-01-05T03:08:45.036Z,101291.53
2019-01-05T03:11:23.856Z,101288.35
2019-01-05T03:14:16.315Z,101284.37
2019-01-05T03:16:57.526Z,101289.95
2019-01-05T03:19:33.518Z,101289.23
2019-01-05T03:22:28.978Z,101286.45
2019-01-05T03:25:35.530Z,101286.05
2019-01-05T03:28:40.283Z,101284.08
2019-01-05T03:31:33.010Z,101289.45
2019-01-05T03:34:20.554Z,101273.16
2019-01-05T03:37:28.682Z,101264.23
2019-01-05T03:40:23.056Z,101263.21
2019-01-05T03:43:04.936Z,101266.67
2019-01-05T03:45:43.722Z,101263.52
2019-01-05T03:48:37.187Z,101264.67
2019-01-05T03:51:18.875Z,101260.91
2019-01-05T03:54:16.341Z,101262.67
2019-01-05T03:57:19.432Z,101264.37
2019-01-05T04:00:04.207Z,101252.15
2019-01-05T04:03:08.917Z,101254.16
2019-01-05T04:06:06.316Z,101245.77
2019-01-05T04:09:04.964Z,101245.05
2019-01-05T04:12:06.560Z,101244.98
2019-01-05T04:14:50.999Z,101249.84
2019-01-05T04:18:03.546Z,101247.73
2019-01-05T04:21:26.520Z,101239.86
2019-01-05T04:24:17.981Z,101235.81
2019-01-05T04:27:11.758Z,101234.12
2019-01-05T04:29:47.608Z,101229.84
2019-01-05T04:32:49.340Z,101227.16
2019-01-05T04:35:31.142Z,101234.05
2019-01-05T04:38:24.907Z,101230.78
2019-01-05T04:41:15.622Z,101227.08
2019-01-05T04:44:00.696Z,101225.15
2019-01-05T04:46:57.645Z,101239.10
2019-01-05T04:49:45.617Z,101223.41
2019-01-05T04:52:47.518Z,101231.94
2019-01-05T04:55:41.565Z,101236.01
2019-01-05T04:58:35.429Z,101227.28
2019-01-05T05:01:32.606Z,101236.01
2019-01-05T05:04:48.043Z,101236.48
2019-01-05T05:07:40.566Z,101226.16
2019-01-05T05:10:32.574Z,101222.45
2019-01-05T05:13:32.573Z,101224.34
2019-01-05T05:16:37.689Z,101223.06
2019-01-05T05:19:36.035Z,101220.55
2019-01-05T05:22:42.676Z,101222.55
2019-01-05T05:25:24.658Z,101225.23
2019-01-05T05:28:15.611Z,101231.17
2019-01-05T05:31:00.849Z,101215.69
2019-01-05T05:33:42.698Z,101213.37
2019-01-05T05:36:24.875Z,101212.17
2019-01-05T05:39:09.807Z,101209.43
2019-01-05T05:42:08.461Z,101203.95
2019-01-05T05:44:59.405Z,101214.34
2019-01-05T05:47:46.523Z,101214.45
2019-01-05T05:50:48.124Z,101208.78
2019-01-05T05:54:02.796Z,101211.45
2019-01-05T05:56:44.893Z,101216.72
2019-01-05T05:59:42.081Z,101212.34
2019-01-05T06:02:31.703Z,101207.84
2019-01-05T06:05:26.910Z,101211.25
2019-01-05T06:08:33.040Z,101213.11
2019-01-05T06:11:26.752Z,101206.08
2019-01-05T06:14:30.696Z,101208.98
2019-01-05T06:17:06.736Z,101194.12
2019-01-05T06:20:05.578Z,101203.35
2019-01-05T06:23:09.977Z,101207.29
2019-01-05T06:26:10.518Z,101222.98
2019-01-05T06:29:13.696Z,101226.86
2019-01-05T06:32:22.855Z,101226.92
2019-01-05T06:35:01.617Z,101230.02
2019-01-05T06:37:37.572Z,101238.38
2019-01-05T06:40:45.622Z,101228.67
2019-01-05T06:43:44.492Z,101248.45
2019-01-05T06:46:38.325Z,101250.37
2019-01-05T06:49:46.307Z,101240.86
2019-01-05T06:53:09.112Z,101240.55
2019-01-05T06:55:47.862Z,101259.42
2019-01-05T06:58:58.974Z,101272.91
2019-01-05T07:02:00.744Z,101289.48
2019-01-05T07:04:57.603Z,101294.51
2019-01-05T07:08:20.494Z,101301.85
2019-01-05T07:11:08.724Z,101321.02
2019-01-05T07:13:54.047Z,101316.72
2019-01-05T07:16:43.708Z,101308.72
2019-01-05T07:19:51.792Z,101310.59
2019-01-05T07:23:08.980Z,101307.43
2019-01-05T07:26:01.260Z,101311.41
2019-01-05T07:28:56.566Z,101318.73
2019-01-05T07:31:50.450Z,101310.33
2019-01-05T07:34:31.896Z,101331.50
2019-01-05T07:37:23.372Z,101335.37
2019-01-05T07:40:26.735Z,101345.87
2019-01-05T07:43:32.076Z,101355.59
2019-01-05T07:46:24.965Z,101360.40
2019-01-05T07:49:26.824Z,101360.40
2019-01-05T07:52:44.197Z,101366.53
2019-01-05T07:55:37.148Z,101369.37
2019-01-05T07:58:32.605Z,101372.72
2019-01-05T08:01:45.133Z,101384.86
2019-01-05T08:04:40.339Z,101386.88
2019-01-05T08:07:46.904Z,101402.11
2019-01-05T08:10:45.680Z,101400.81
2019-01-05T08:13:18.823Z,101402.99
2019-01-05T08:16:13.874Z,101400.51
2019-01-05T08:19:26.207Z,101393.81
2019-01-05T08:22:22.260Z,101395.67
2019-01-05T08:25:16.483Z,101392.38
2019-01-05T08:28:04.679Z,101398.31
2019-01-05T08:30:49.433Z,101396.59
2019-01-05T08:33:55.893Z,101400.91
2019-01-05T08:36:49.469Z,101405.31
2019-01-05T08:40:11.951Z,101405.63
2019-01-05T08:43:21.127Z,101407.75
2019-01-05T08:46:33.757Z,101408.88
2019-01-05T08:49:40.439Z,101409.23
2019-01-05T08:52:24.803Z,101410.12
2019-01-05T08:55:32.665Z,101413.37
2019-01-05T08:58:42.109Z,101409.72
2019-01-05T09:01:32.825Z,101410.69
2019-01-05T09:04:17.155Z,101415.50
2019-01-05T09:07:09.976Z,101423.58
2019-01-05T09:10:20.963Z,101429.63
2019-01-05T09:13:11.741Z,101434.73
2019-01-05T09:15:56.502Z,101437.63
2019-01-05T09:19:13.069Z,101440.42
2019-01-05T09:22:19.563Z,101437.56
2019-01-05T09:25:12.284Z,101437.09
2019-01-05T09:28:11.098Z,101448.13
2019-01-05T09:31:17.509Z,101435.47
2019-01-05T09:34:05.208Z,101431.33
2019-01-05T09:36:59.269Z,101437.63
2019-01-05T09:39:43.756Z,101430.88
2019-01-05T09:42:37.900Z,101438.09
2019-01-05T09:45:46.504Z,101439.39
2019-01-05T09:48:46.438Z,101452.17
2019-01-05T09:51:52.400Z,101447.34
2019-01-05T09:54:46.156Z,101443.68
2019-01-05T09:57:47.503Z,101461.28
2019-01-05T10:00:56.331Z,101459.38
2019-01-05T10:04:10.358Z,101452.70
2019-01-05T10:07:13.404Z,101449.70
2019-01-05T10:10:10.714Z,101458.55
2019-01-05T10:13:14.248Z,101453.89
2019-01-05T10:16:01.833Z,101453.63
2019-01-05T10:19:24.818Z,101442.89
2019-01-05T10:22:21.763Z,101442.89
2019-01-05T10:25:24.532Z,101449.87
2019-01-05T10:28:41.755Z,101456.48
2019-01-05T10:31:34.380Z,101470.87
2019-01-05T10:34:22.603Z,101455.52
2019-01-05T10:37:28.637Z,101461.31
2019-01-05T10:40:18.988Z,101475.81
2019-01-05T10:43:32.438Z,101468.88
2019-01-05T10:46:13.903Z,101467.94
2019-01-05T10:49:20.854Z,101469.23
2019-01-05T10:52:05.617Z,101468.91
2019-01-05T10:54:44.050Z,101474.72
2019-01-05T10:57:45.977Z,101470.64
2019-01-05T11:00:42.906Z,101467.63
2019-01-05T11:03:21.167Z,101465.98
2019-01-05T11:06:21.996Z,101481.23
2019-01-05T11:09:12.779Z,101484.50
2019-01-05T11:12:02.277Z,101487.98
2019-01-05T11:15:00.299Z,101487.81
2019-01-05T11:17:59.271Z,101482.33
2019-01-05T11:20:53.338Z,101490.66
2019-01-05T11:24:13.059Z,101483.36
2019-01-05T11:27:20.268Z,101486.52
2019-01-05T11:30:12.741Z,101482.07
2019-01-05T11:33:18.794Z,101471.00
2019-01-05T11:36:00.096Z,101491.22
2019-01-05T11:39:06.265Z,101477.56
2019-01-05T11:42:04.751Z,101491.28
2019-01-05T11:45:01.776Z,101492.27
2019-01-05T11:47:55.538Z,101493.82
2019-01-05T11:50:49.785Z,101495.06
2019-01-05T11:53:49.945Z,101483.88
2019-01-05T11:56:51.673Z,101494.69
2019-01-05T12:00:00.624Z,101493.05
2019-01-05T12:02:57.855Z,101495.52
2019-01-05T12:05:55.971Z,101498.75
2019-01-05T12:08:46.817Z,101503.92
2019-01-05T12:11:40.407Z,101507.14
2019-01-05T12:14:37.216Z,101516.30
2019-01-05T12:17:43.638Z,101515.23
2019-01-05T12:20:45.548Z,101512.19
2019-01-05T12:23:39.793Z,101522.30
2019-01-05T12:26:50.390Z,101525.64
2019-01-05T12:29:58.060Z,101528.86
2019-01-05T12:32:54.616Z,101526.69
2019-01-05T12:35:50.886Z,101532.23
2019-01-05T12:38:38.655Z,101531.36
2019-01-05T12:41:17.492Z,101531.72
2019-01-05T12:44:23.906Z,101540.77
2019-01-05T12:47:22.550Z,101529.22
2019-01-05T12:50:28.738Z,101540.36
2019-01-05T12:53:24.642Z,101545.32
2019-01-05T12:56:39.841Z,101535.54
2019-01-05T12:59:44.926Z,101543.36
2019-01-05T13:02:46.702Z,101541.55
2019-01-05T13:05:38.038Z,101545.44
2019-01-05T13:08:52.096Z,101552.27
2019-01-05T13:11:39.968Z,101549.37
2019-01-05T13:14:46.457Z,101549.53
2019-01-05T13:18:00.477Z,101556.51
2019-01-05T13:20:51.216Z,101556.09
2019-01-05T13:23:42.251Z,101561.11
2019-01-05T13:26:48.384Z,101565.88
2019-01-05T13:29:58.133Z,101562.00
2019-01-05T13:32:46.249Z,101566.93
2019-01-05T13:35:37.284Z,101574.12
2019-01-05T13:38:25.202Z,101578.87
2019-01-05T13:41:33.060Z,101584.09
2019-01-05T13:44:42.222Z,101594.13
2019-01-05T13:47:41.041Z,101603.50
2019-01-05T13:50:25.515Z,101612.39
2019-01-05T13:53:04.532Z,101608.98
2019-01-05T13:55:55.062Z,101608.20
2019-01-05T13:58:27.678Z,101615.12
2019-01-05T14:01:00.737Z,101614.78
2019-01-05T14:03:42.729Z,101617.91
2019-01-05T14:06:18.760Z,101628.95
2019-01-05T14:09:05.376Z,101631.44
2019-01-05T14:11:59.334Z,101632.89
2019-01-05T14:14:45.577Z,101645.19
2019-01-05T14:17:31.818Z,101637.73
2019-01-05T14:20:11.658Z,101638.17
2019-01-05T14:22:42.142Z,101641.34
2019-01-05T14:25:14.880Z,101641.75
2019-01-05T14:27:45.011Z,101644.40
2019-01-05T14:30:15.128Z,101651.43
2019-01-05T14:32:54.412Z,101642.25
2019-01-05T14:35:24.494Z,101641.97
2019-01-05T14:37:54.615Z,101642.02
2019-01-05T14:40:42.433Z,101651.16
2019-01-05T14:43:12.503Z,101653.94
2019-01-05T14:45:48.336Z,101652.92
2019-01-05T14:48:34.315Z,101655.13
2019-01-05T14:51:16.277Z,101657.81
2019-01-05T14:53:52.079Z,101651.27
2019-01-05T14:56:38.646Z,101660.93
2019-01-05T14:59:24.923Z,101670.20
2019-01-05T15:02:01.123Z,101677.61
2019-01-05T15:04:31.322Z,101677.02
2019-01-05T15:07:07.154Z,101682.56
2019-01-05T15:09:55.197Z,101685.14
2019-01-05T15:12:28.275Z,101685.85
2019-01-05T15:15:14.731Z,101694.41
2019-01-05T15:17:44.832Z,101691.89
2019-01-05T15:20:31.460Z,101696.30
2019-01-05T15:23:01.634Z,101700.76
2019-01-05T15:25:49.667Z,101698.37
2019-01-05T15:28:35.864Z,101699.06
2019-01-05T15:31:08.395Z,101704.23
2019-01-05T15:33:55.216Z,101706.63
2019-01-05T15:36:25.299Z,101705.83
2019-01-05T15:39:04.171Z,101701.77
2019-01-05T15:41:40.336Z,101699.77
2019-01-05T15:44:26.706Z,101706.16
2019-01-05T15:47:02.447Z,101701.95
2019-01-05T15:49:35.079Z,101704.64
2019-01-05T15:52:10.652Z,101710.11
2019-01-05T15:54:40.759Z,101712.41
2019-01-05T15:57:13.924Z,101710.81
2019-01-05T15:59:59.046Z,101711.80
2019-01-05T16:02:47.566Z,101719.16
2019-01-05T16:05:20.383Z,101716.09
2019-01-05T16:07:56.153Z,101722.85
2019-01-05T16:10:32.454Z,101727.91
2019-01-05T16:13:18.808Z,101731.89
2019-01-05T16:15:48.950Z,101739.06
2019-01-05T16:18:35.480Z,101734.29
2019-01-05T16:21:08.244Z,101734.47
2019-01-05T16:23:44.096Z,101740.62
2019-01-05T16:26:30.418Z,101747.20
2019-01-05T16:29:09.161Z,101743.33
2019-01-05T16:31:42.225Z,101742.03
2019-01-05T16:34:24.433Z,101744.62
2019-01-05T16:36:54.527Z,101742.22
2019-01-05T16:39:24.616Z,101740.15
2019-01-05T16:41:57.131Z,101738.45
2019-01-05T16:44:27.232Z,101740.44
2019-01-05T16:47:00.282Z,101741.92
2019-01-05T16:49:42.487Z,101737.75
2019-01-05T16:52:18.311Z,101742.55
2019-01-05T16:55:04.874Z,101745.71
2019-01-05T16:57:47.003Z,101741.26
2019-01-05T17:00:33.364Z,101742.14
2019-01-05T17:03:12.092Z,101742.31
2019-01-05T17:05:42.210Z,101747.61
2019-01-05T17:08:28.024Z,101748.41
2019-01-05T17:11:10.440Z,101743.23
2019-01-05T17:13:40.491Z,101747.69
2019-01-05T17:16:10.613Z,101747.59
2019-01-05T17:18:40.711Z,101753.82
2019-01-05T17:21:16.516Z,101752.84
2019-01-05T17:24:01.585Z,101756.82
2019-01-05T17:26:50.156Z,101769.02
2019-01-05T17:29:35.309Z,101770.50
2019-01-05T17:32:05.432Z,101768.42
2019-01-05T17:34:51.753Z,101777.45
2019-01-05T17:37:37.872Z,101774.88
2019-01-05T17:40:24.903Z,101778.17
2019-01-05T17:43:00.922Z,101775.41
2019-01-05T17:45:35.222Z,101786.89
2019-01-05T17:48:23.493Z,101789.73
2019-01-05T17:51:05.967Z,101799.69
2019-01-05T17:53:48.343Z,101803.04
2019-01-05T17:56:24.319Z,101802.07
2019-01-05T17:58:55.182Z,101803.69
2019-01-05T18:01:41.187Z,101801.67
2019-01-05T18:04:11.274Z,101812.19
2019-01-05T18:06:57.467Z,101816.38
2019-01-05T18:09:33.581Z,101820.02
2019-01-05T18:12:18.771Z,101818.07
2019-01-05T18:15:06.930Z,101815.33
2019-01-05T18:17:53.515Z,101815.61
2019-01-05T18:20:33.777Z,101820.61
2019-01-05T18:23:14.691Z,101823.70
2019-01-05T18:25:47.203Z,101821.73
2019-01-05T18:28:20.010Z,101830.27
2019-01-05T18:30:55.953Z,101834.58
2019-01-05T18:33:42.417Z,101834.70
2019-01-05T18:36:12.553Z,101835.47
2019-01-05T18:38:42.647Z,101841.30
2019-01-05T18:41:29.010Z,101841.09
2019-01-05T18:44:15.226Z,101844.73
2019-01-05T18:46:54.226Z,101835.33
2019-01-05T18:49:27.008Z,101843.13
2019-01-05T18:52:10.939Z,101850.13
2019-01-05T18:54:57.332Z,101858.25
2019-01-05T18:57:43.930Z,101846.86
2019-01-05T19:00:23.142Z,101854.11
2019-01-05T19:03:05.131Z,101863.34
2019-01-05T19:05:37.702Z,101865.64
2019-01-05T19:08:26.147Z,101872.81
2019-01-05T19:11:05.441Z,101871.75
2019-01-05T19:13:44.344Z,101872.98
2019-01-05T19:16:23.385Z,101887.95
2019-01-05T19:19:05.561Z,101885.58
2019-01-05T19:21:44.670Z,101887.31
2019-01-05T19:24:17.220Z,101893.00
2019-01-05T19:27:02.345Z,101897.63
2019-01-05T19:29:41.531Z,101907.53
2019-01-05T19:32:11.688Z,101908.66
2019-01-05T19:34:41.797Z,101910.08
2019-01-05T19:37:27.938Z,101911.27
2019-01-05T19:40:14.308Z,101914.21
2019-01-05T19:42:53.179Z,101915.50
2019-01-05T19:45:23.332Z,101919.83
2019-01-05T19:48:11.881Z,101924.27
2019-01-05T19:50:47.680Z,101921.08
2019-01-05T19:53:27.902Z,101934.09
2019-01-05T19:56:14.377Z,101943.35
2019-01-05T19:59:00.947Z,101944.55
2019-01-05T20:01:31.065Z,101958.16
2019-01-05T20:04:10.232Z,101936.34
2019-01-05T20:06:43.139Z,101941.22
2019-01-05T20:09:13.268Z,101945.56
2019-01-05T20:11:46.309Z,101947.12
2019-01-05T20:14:19.133Z,101954.84
2019-01-05T20:16:57.836Z,101945.34
2019-01-05T20:19:36.855Z,101955.13
2019-01-05T20:22:12.932Z,101950.78
2019-01-05T20:24:48.488Z,101958.83
2019-01-05T20:27:35.072Z,101959.88
2019-01-05T20:30:24.046Z,101960.89
2019-01-05T20:33:03.088Z,101964.31
2019-01-05T20:35:36.354Z,101958.14
2019-01-05T20:38:09.115Z,101961.73
2019-01-05T20:40:55.446Z,101963.91
2019-01-05T20:43:43.213Z,101969.18
2019-01-05T20:46:29.754Z,101967.41
2019-01-05T20:49:18.143Z,101979.47
2019-01-05T20:51:54.257Z,101974.23
2019-01-05T20:54:39.356Z,101981.17
2019-01-05T20:57:21.826Z,101984.50
2019-01-05T20:59:54.667Z,101989.14
2019-01-05T21:02:43.243Z,101990.31
2019-01-05T21:05:29.732Z,101988.16
2019-01-05T21:08:08.773Z,101986.22
2019-01-05T21:10:38.916Z,101987.25
2019-01-05T21:13:11.416Z,101989.70
2019-01-05T21:15:57.678Z,101989.28
2019-01-05T21:18:27.781Z,101997.64
2019-01-05T21:21:09.891Z,101996.48
2019-01-05T21:23:55.027Z,101999.06
2019-01-05T21:26:43.075Z,101996.65
2019-01-05T21:29:29.435Z,101997.78
2019-01-05T21:32:11.278Z,101998.33
2019-01-05T21:34:59.642Z,101998.07
2019-01-05T21:37:41.566Z,101996.00
2019-01-05T21:40:17.854Z,101993.58
2019-01-05T21:42:53.778Z,101997.30
2019-01-05T21:45:40.545Z,101998.84
2019-01-05T21:48:16.501Z,102003.98
2019-01-05T21:50:49.509Z,102010.94
2019-01-05T21:53:23.775Z,102008.34
2019-01-05T21:56:09.739Z,102018.88
2019-01-05T21:58:45.937Z,102018.86
2019-01-05T22:01:32.442Z,102016.58
2019-01-05T22:04:14.301Z,102014.64
2019-01-05T22:07:00.833Z,102023.21
2019-01-05T22:09:40.141Z,102017.57
2019-01-05T22:12:16.169Z,102013.84
2019-01-05T22:14:49.453Z,102021.66
2019-01-05T22:17:22.288Z,102017.42
2019-01-05T22:20:10.528Z,102022.70
2019-01-05T22:22:43.604Z,102019.61
2019-01-05T22:25:16.448Z,102015.20
2019-01-05T22:27:49.485Z,102021.66
2019-01-05T22:30:25.392Z,102020.89
2019-01-05T22:33:07.462Z,102019.73
2019-01-05T22:35:38.916Z,102014.70
2019-01-05T22:38:11.757Z,102014.45
2019-01-05T22:40:41.900Z,102009.42
2019-01-05T22:43:28.438Z,102018.02
2019-01-05T22:45:58.527Z,102014.03
2019-01-05T22:48:47.049Z,102017.94
2019-01-05T22:51:17.190Z,102025.39
2019-01-05T22:53:49.925Z,102025.80
2019-01-05T22:56:31.968Z,102028.05
2019-01-05T22:59:20.279Z,102020.74
2019-01-05T23:02:05.579Z,102024.72
2019-01-05T23:04:35.508Z,102029.36
2019-01-05T23:07:08.791Z,102031.14
2019-01-05T23:09:57.201Z,102035.41
2019-01-05T23:12:43.666Z,102036.06
2019-01-05T23:15:30.151Z,102033.98
2019-01-05T23:18:16.364Z,102036.95
2019-01-05T23:20:46.467Z,102038.88
2019-01-05T23:23:25.704Z,102046.98
2019-01-05T23:25:58.440Z,102038.65
2019-01-05T23:28:31.342Z,102041.31
2019-01-05T23:31:01.423Z,102046.21
2019-01-05T23:33:37.517Z,102045.81
2019-01-05T23:36:13.315Z,102051.21
2019-01-05T23:39:01.731Z,102048.11
2019-01-05T23:41:34.537Z,102055.09
2019-01-05T23:44:21.079Z,102052.24
2019-01-05T23:47:02.879Z,102042.87
2019-01-05T23:49:32.988Z,102043.47
2019-01-05T23:52:05.976Z,102042.47
2019-01-05T23:54:51.405Z,102044.91
2019-01-05T23:57:37.616Z,102054.55
